Whitehorse, Yukon Territory

10:03 PM PDT on July 05, 2015 (GMT -0700)
Arkell | | Change Station
CLOSE
Current Station
Personal Weather Station
Location: Whitehorse, YUKON TERRITORY
Elevation: 2300 ft
Nearby Weather Stations

Elev 2300 ft 60.71 °N, 135.12 °W | Updated 44 seconds ago

Overcast
Overcast
69.1 °F
Feels Like 69.1 °F
N
1.7
Wind Variable Wind from NNW
Gusts 2.7 mph

Today
High -- | Low -- °F
--% Chance of Precip.
Yesterday
High -- | Low -- °F
Precip. -- in
4:39 AM 11:29 PM
Waning Gibbous, 79% visible
Pressure 30.15 in
Visibility 40.0 miles
Clouds Mostly Cloudy 10000 ft
Overcast 22000 ft
Dew Point 46 °F
Humidity 43%
Rainfall 0.00 in
Snow Depth Not available.
UV 0 out of 12
Pollen Not available.
Air Quality Not available.
Flu Activity Not available.
METAR CYXY 060400Z 33005KT 40SM BKN100 OVC220 22/08 A3012 RMK AC7CI1 FU SLP208 DENSITY ALT 3400FT

More Conditions Fewer Conditions

Pressure 30.15 in
Visibility 40.0 miles
Clouds Mostly Cloudy 10000 ft
Overcast 22000 ft
Dew Point 46 °F
Humidity 43%
Rainfall 0.00 in
Snow Depth Not available.
UV 0 out of 12
Pollen Not available.
Air Quality Not available.
Flu Activity Not available.
METAR CYXY 060400Z 33005KT 40SM BKN100 OVC220 22/08 A3012 RMK AC7CI1 FU SLP208 DENSITY ALT 3400FT

More Conditions Fewer Conditions

10-Day Weather Forecast

×

Almanac

Astronomy

Jul. 05, 2015 Rise Set
Actual Time
Civil Twilight
Nautical Twilight
Astronomical Twilight
Moon
Length of Visible Light
Length of Day
Tomorrow will be .
, % of the Moon is Illuminated

Today's Extremes

Country Highs Country Lows

Community

WunderPhotos

Upload Photos

1,835,487 photos uploaded!

WunderBlogs® & News

Nearby

Air Quality

  Air Quality AQ Index Pollutant
Not available.

Snow Depth

Station Depth Elevation

Earthquake Activity

City Distance Mag. Time & Date
Minimum magnitude displayed is 2.5.

Coastal Water Temperatures

Place Temperature

Stations

Nearby Weather Stations

Station Location Temp. Windchill Dew Point Humidity Wind Precip. Elev Updated Type